Time;durP1;ratioP1;P1;durP2;ratioP2;P2;SDS_P1;SDS_P2;PMS_P1;PMS_P2;Temp;Humidity;BMP_temperature;BMP_pressure;BME280_temperature;BME280_humidity;BME280_pressure;Samples;Min_cycle;Max_cycle;Signal;HPM_P1;HPM_P2
2023/01/14 00:00:03;;;;;;;21.90;19.20;;;;;;;4.70;96.70;97800.56;107401;1282;24187;-90
2023/01/14 00:02:33;;;;;;;22.40;20.00;;;;;;;4.69;96.83;97803.08;107158;1283;22685;-92
2023/01/14 00:05:01;;;;;;;17.20;15.30;;;;;;;4.64;96.65;97803.90;107129;1283;22561;-91
2023/01/14 00:07:29;;;;;;;18.80;16.80;;;;;;;4.64;96.73;97801.07;107028;1278;25371;-89
2023/01/14 00:09:57;;;;;;;17.90;16.10;;;;;;;4.65;96.85;97804.52;106790;1284;23516;-89
2023/01/14 00:12:25;;;;;;;13.60;12.20;;;;;;;4.65;97.03;97811.18;106971;1284;23575;-90
2023/01/14 00:14:53;;;;;;;15.90;14.30;;;;;;;4.67;96.84;97807.77;106763;1284;22557;-91
2023/01/14 00:17:21;;;;;;;15.00;13.60;;;;;;;4.67;97.11;97807.71;107148;1283;22502;-91
2023/01/14 00:19:49;;;;;;;14.50;13.10;;;;;;;4.64;96.76;97804.60;107191;1283;24191;-92
2023/01/14 00:22:17;;;;;;;14.90;13.40;;;;;;;4.62;96.79;97803.73;106944;1283;24347;-91
2023/01/14 00:24:47;;;;;;;16.80;15.10;;;;;;;4.61;96.47;97801.65;107147;1283;22649;-92
2023/01/14 00:27:15;;;;;;;16.30;13.20;;;;;;;4.60;96.41;97806.04;107026;1283;24385;-92
2023/01/14 00:29:43;;;;;;;16.30;14.60;;;;;;;4.62;96.65;97802.94;107038;1283;23960;-91
2023/01/14 00:32:11;;;;;;;16.10;14.50;;;;;;;4.60;96.87;97798.45;107002;1283;26031;-91
2023/01/14 00:34:39;;;;;;;16.70;15.10;;;;;;;4.56;96.68;97803.67;107010;1283;22600;-92
2023/01/14 00:37:07;;;;;;;15.40;13.90;;;;;;;4.50;96.43;97807.55;106964;1283;24229;-91
2023/01/14 00:44:21;;;;;;;16.20;14.70;;;;;;;4.43;96.30;97810.98;107102;1283;22567;-92
2023/01/14 00:46:51;;;;;;;13.70;12.30;;;;;;;4.42;96.01;97810.61;106958;1283;22592;-91
2023/01/14 00:49:22;;;;;;;15.10;13.70;;;;;;;4.41;96.07;97812.27;106903;1283;23244;-91
2023/01/14 00:51:51;;;;;;;15.70;14.20;;;;;;;4.37;96.19;97818.86;106931;1281;22578;-91
2023/01/14 00:59:19;;;;;;;14.10;12.80;;;;;;;4.27;95.86;97827.98;106977;1283;24256;-93
2023/01/14 01:01:51;;;;;;;15.30;13.80;;;;;;;4.27;95.91;97828.27;106701;1284;25216;-90
2023/01/14 01:04:20;;;;;;;16.60;15.10;;;;;;;4.29;95.89;97827.98;106680;1284;22551;-90
2023/01/14 01:11:05;;;;;;;19.70;17.90;;;;;;;4.19;95.76;97830.52;106928;1283;25258;-88
2023/01/14 01:13:34;;;;;;;19.00;17.20;;;;;;;4.13;95.61;97831.54;107136;1283;22675;-88
2023/01/14 01:16:06;;;;;;;17.90;16.30;;;;;;;4.06;95.40;97834.98;107250;1283;24352;-88
2023/01/14 01:18:34;;;;;;;19.20;17.40;;;;;;;4.03;95.50;97841.52;107631;1283;22578;-89
2023/01/14 01:21:04;;;;;;;21.40;19.50;;;;;;;4.00;95.65;97840.42;107028;1283;22576;-88
2023/01/14 01:23:32;;;;;;;20.10;18.40;;;;;;;3.94;95.20;97839.70;106833;1278;22575;-88
2023/01/14 01:26:03;;;;;;;20.80;18.90;;;;;;;3.87;95.53;97834.10;106667;1284;22642;-88
2023/01/14 01:28:32;;;;;;;22.10;19.90;;;;;;;3.78;95.17;97836.60;107005;1269;22534;-90
2023/01/14 01:31:06;;;;;;;19.40;17.50;;;;;;;3.69;95.47;97833.34;108501;1284;22599;-90
2023/01/14 01:33:35;;;;;;;20.50;18.60;;;;;;;3.64;95.24;97839.90;108075;1284;22509;-89
2023/01/14 01:36:06;;;;;;;20.70;18.70;;;;;;;3.64;95.54;97839.91;107082;1284;25387;-89
2023/01/14 01:38:35;;;;;;;21.80;19.80;;;;;;;3.59;95.23;97844.13;107323;1284;22652;-90
2023/01/14 01:41:04;;;;;;;21.40;19.40;;;;;;;3.49;95.15;97849.17;107085;1284;22483;-89
2023/01/14 01:43:33;;;;;;;19.40;17.60;;;;;;;3.40;95.21;97853.35;107394;1284;22830;-92
2023/01/14 01:46:01;;;;;;;20.10;17.80;;;;;;;3.33;95.39;97851.11;108374;1284;22548;-93
2023/01/14 01:48:38;;;;;;;18.80;17.10;;;;;;;3.28;94.86;97851.16;107608;1284;22563;-92
2023/01/14 01:51:28;;;;;;;16.90;15.40;;;;;;;3.24;94.92;97851.89;107849;1284;25442;-93
2023/01/14 01:54:04;;;;;;;19.00;17.30;;;;;;;3.23;95.30;97858.21;107220;1292;22810;-91
2023/01/14 01:56:36;;;;;;;20.30;18.60;;;;;;;3.23;95.82;97862.89;108085;1284;22878;-91
2023/01/14 01:59:09;;;;;;;21.60;19.60;;;;;;;3.21;95.74;97860.31;107617;1287;22596;-91
2023/01/14 02:01:40;;;;;;;21.80;19.80;;;;;;;3.17;95.62;97866.30;107146;1291;22593;-93
2023/01/14 02:04:11;;;;;;;17.40;15.80;;;;;;;3.10;95.46;97865.48;107162;1291;22588;-92
2023/01/14 02:06:40;;;;;;;18.20;16.60;;;;;;;3.13;95.90;97861.67;107159;1291;22570;-92
2023/01/14 02:09:11;;;;;;;14.80;13.30;;;;;;;3.11;95.87;97861.98;106849;1291;22544;-92
2023/01/14 02:11:49;;;;;;;15.90;14.40;;;;;;;3.14;95.76;97860.58;106646;1291;23358;-92
2023/01/14 02:18:00;;;;;;;17.50;15.00;;;;;;;3.08;96.06;97864.65;106819;1287;24286;-91
2023/01/14 02:20:41;;;;;;;15.60;14.10;;;;;;;3.08;96.32;97869.35;106761;1291;22670;-93
2023/01/14 02:23:21;;;;;;;16.70;15.20;;;;;;;3.15;96.65;97871.40;107338;1291;22699;-94
2023/01/14 02:26:02;;;;;;;18.20;16.30;;;;;;;3.23;96.46;97868.54;107741;1291;22571;-93
2023/01/14 02:29:08;;;;;;;16.60;15.10;;;;;;;3.33;96.72;97872.67;107445;1291;23216;-94
2023/01/14 02:31:45;;;;;;;16.30;14.70;;;;;;;3.43;96.60;97876.61;106776;1283;22540;-90
2023/01/14 02:34:26;;;;;;;18.40;16.20;;;;;;;3.50;96.74;97876.35;106808;1283;22613;-91
2023/01/14 02:37:22;;;;;;;17.00;15.20;;;;;;;3.56;96.83;97880.45;106931;1283;25376;-90
2023/01/14 02:39:51;;;;;;;17.20;15.60;;;;;;;3.56;96.66;97875.98;106788;1283;24475;-90
2023/01/14 02:45:37;;;;;;;32.70;29.40;;;;;;;3.67;96.81;97882.63;106870;1283;25291;-90
2023/01/14 02:48:08;;;;;;;35.00;31.70;;;;;;;3.70;96.78;97884.08;106886;1283;22540;-92
2023/01/14 02:50:38;;;;;;;33.00;29.40;;;;;;;3.71;97.26;97888.52;106984;1283;22680;-91
2023/01/14 02:53:08;;;;;;;26.20;21.30;;;;;;;3.71;97.11;97884.83;106887;1283;24324;-91
2023/01/14 02:55:39;;;;;;;19.40;16.40;;;;;;;3.74;97.25;97885.18;107101;1283;22536;-93
2023/01/14 02:58:24;;;;;;;15.30;13.90;;;;;;;3.77;97.05;97886.06;107328;1283;22575;-94
2023/01/14 03:01:08;;;;;;;14.40;12.90;;;;;;;3.81;97.91;97884.92;107387;1273;23075;-93
2023/01/14 03:03:52;;;;;;;13.60;12.30;;;;;;;3.82;97.41;97890.78;107606;1283;25453;-94
2023/01/14 03:06:49;;;;;;;13.60;12.10;;;;;;;3.83;97.94;97888.62;107573;1283;25336;-93
2023/01/14 03:10:10;;;;;;;17.10;15.30;;;;;;;3.85;98.30;97892.73;107162;1283;22583;-92
2023/01/14 03:13:04;;;;;;;14.00;12.70;;;;;;;3.91;97.66;97892.52;107466;1283;22682;-93
2023/01/14 03:16:00;;;;;;;15.10;13.50;;;;;;;3.96;98.33;97895.33;107595;1283;22607;-93
2023/01/14 03:18:44;;;;;;;15.60;14.00;;;;;;;3.98;98.01;97895.81;107440;1283;22569;-90
2023/01/14 03:21:25;;;;;;;;;;;;;;;3.99;98.43;97899.08;107180;1283;22590;-93
2023/01/14 03:24:11;;;;;;;15.00;13.40;;;;;;;4.01;98.31;97900.10;107646;1283;22712;-92
2023/01/14 03:26:51;;;;;;;16.00;14.50;;;;;;;4.07;98.24;97900.30;108861;1282;22623;-90
2023/01/14 03:29:28;;;;;;;17.70;16.10;;;;;;;4.11;98.58;97902.45;108938;1283;22590;-94
2023/01/14 03:32:54;;;;;;;19.40;17.60;;;;;;;4.13;98.47;97907.59;107920;1283;22554;-93
2023/01/14 03:35:34;;;;;;;20.80;18.90;;;;;;;4.16;98.59;97911.23;107506;1274;22549;-91
2023/01/14 03:38:09;;;;;;;23.00;20.60;;;;;;;4.21;98.94;97914.48;107620;1283;25243;-93
2023/01/14 03:40:41;;;;;;;19.90;17.90;;;;;;;4.25;98.60;97915.89;108515;1283;22730;-92
2023/01/14 03:43:28;;;;;;;23.00;19.90;;;;;;;4.28;99.08;97917.66;108225;1283;22618;-91
2023/01/14 03:45:57;;;;;;;17.10;15.30;;;;;;;4.29;98.63;97918.48;108792;1284;22616;-92
2023/01/14 03:48:26;;;;;;;17.90;13.60;;;;;;;4.30;98.90;97918.76;109382;1284;25377;-91
2023/01/14 03:51:18;;;;;;;17.10;14.60;;;;;;;4.35;99.35;97922.78;109667;1284;22330;-88
2023/01/14 03:54:05;;;;;;;17.30;14.70;;;;;;;4.39;99.36;97925.31;108892;1278;24242;-92
2023/01/14 03:56:44;;;;;;;18.10;16.20;;;;;;;4.41;99.11;97929.65;106898;1283;22540;-91
2023/01/14 03:59:21;;;;;;;14.50;13.00;;;;;;;4.42;98.88;97932.54;106850;1282;25439;-89
2023/01/14 04:01:53;;;;;;;15.80;12.20;;;;;;;4.43;98.72;97936.65;106795;1283;23255;-90
2023/01/14 04:04:24;;;;;;;12.40;10.80;;;;;;;4.46;98.81;97944.45;106677;1283;24428;-90
2023/01/14 04:11:39;;;;;;;10.10;9.10;;;;;;;4.47;98.36;97939.88;108050;1264;24218;-91
2023/01/14 04:17:21;;;;;;;9.80;8.10;;;;;;;4.52;98.21;97944.98;107624;1283;22573;-90
2023/01/14 04:19:49;;;;;;;11.00;9.40;;;;;;;4.57;98.30;97946.60;108094;1283;22784;-92
2023/01/14 04:22:17;;;;;;;10.80;9.10;;;;;;;4.57;98.00;97947.46;107922;1283;22502;-91
2023/01/14 04:24:46;;;;;;;9.90;8.10;;;;;;;4.56;97.74;97943.98;107479;1283;22808;-91
2023/01/14 04:28:05;;;;;;;10.80;8.90;;;;;;;4.57;97.76;97949.33;107200;1283;22544;-92
2023/01/14 04:30:33;;;;;;;11.80;8.50;;;;;;;4.62;97.96;97955.33;106890;1283;24249;-90
2023/01/14 04:33:01;;;;;;;9.50;8.60;;;;;;;4.62;97.82;97959.06;106824;1283;25436;-89
2023/01/14 04:35:29;;;;;;;9.30;8.20;;;;;;;4.62;97.15;97964.14;106774;1283;22815;-89
2023/01/14 04:37:57;;;;;;;13.30;10.10;;;;;;;4.62;97.23;97960.33;107104;1283;22675;-89
2023/01/14 04:40:25;;;;;;;10.50;8.80;;;;;;;4.63;97.36;97966.13;106820;1260;23916;-89
2023/01/14 04:42:53;;;;;;;10.40;9.10;;;;;;;4.66;97.31;97971.73;106827;1283;22592;-89
2023/01/14 04:45:21;;;;;;;12.60;10.60;;;;;;;4.65;97.11;97975.05;107023;1284;25657;-93
2023/01/14 04:47:50;;;;;;;10.00;8.40;;;;;;;4.65;97.01;97978.14;106950;1283;22586;-89
2023/01/14 04:50:30;;;;;;;9.70;8.30;;;;;;;4.64;96.64;97975.95;109044;1279;22606;-87
2023/01/14 04:53:06;;;;;;;9.90;8.90;;;;;;;4.64;96.89;97973.48;106982;1280;22584;-90
2023/01/14 04:55:39;;;;;;;13.40;8.90;;;;;;;4.66;96.72;97974.10;107540;1283;22653;-92
2023/01/14 04:58:09;;;;;;;11.80;9.40;;;;;;;4.65;96.26;97980.12;107901;1283;22665;-92
2023/01/14 05:00:40;;;;;;;11.80;10.40;;;;;;;4.62;96.22;97977.27;107641;1283;25256;-90
2023/01/14 05:03:12;;;;;;;11.10;9.50;;;;;;;4.61;96.15;97978.21;106919;1284;24382;-90
2023/01/14 05:05:41;;;;;;;10.40;9.30;;;;;;;4.62;96.42;97980.90;107181;1280;22534;-92
2023/01/14 05:08:10;;;;;;;12.80;11.20;;;;;;;4.63;96.17;97981.86;107368;1283;22603;-91
2023/01/14 05:10:40;;;;;;;11.90;9.60;;;;;;;4.61;95.91;97982.55;107158;1283;23442;-90
2023/01/14 05:13:08;;;;;;;10.90;9.10;;;;;;;4.59;95.64;97987.66;107982;1283;25428;-92
2023/01/14 05:15:42;;;;;;;11.10;8.90;;;;;;;4.61;95.85;97990.12;109695;1284;23023;-93
2023/01/14 05:18:13;;;;;;;10.50;9.10;;;;;;;4.59;95.85;97990.45;109581;1279;22570;-91
2023/01/14 05:20:43;;;;;;;11.60;9.60;;;;;;;4.60;95.39;97991.98;109709;1283;22352;-91
2023/01/14 05:23:16;;;;;;;10.70;9.20;;;;;;;4.57;95.36;97994.90;109908;1283;23376;-90
2023/01/14 05:25:45;;;;;;;10.00;8.70;;;;;;;4.58;95.41;97998.38;109866;1284;22401;-89
2023/01/14 05:28:17;;;;;;;10.10;8.60;;;;;;;4.60;95.63;98004.22;109918;1284;22067;-91
2023/01/14 05:30:46;;;;;;;10.40;8.80;;;;;;;4.61;95.59;98009.28;109728;1284;22583;-88
2023/01/14 05:33:14;;;;;;;11.40;9.10;;;;;;;4.62;95.66;98006.95;109386;1284;22580;-91
2023/01/14 05:35:43;;;;;;;11.60;10.10;;;;;;;4.61;95.46;98014.83;108926;1276;25166;-89
2023/01/14 05:38:11;;;;;;;12.20;10.90;;;;;;;4.60;95.16;98015.73;107513;1284;22554;-90
2023/01/14 05:40:39;;;;;;;13.10;11.10;;;;;;;4.58;95.35;98023.95;108251;1284;22878;-92
2023/01/14 05:45:54;;;;;;;16.80;13.70;;;;;;;4.59;95.19;98028.95;108475;1284;22552;-91
2023/01/14 05:48:26;;;;;;;16.70;14.40;;;;;;;4.58;94.98;98029.66;107904;1284;22614;-92
2023/01/14 05:50:57;;;;;;;17.30;14.60;;;;;;;4.55;94.51;98035.67;107707;1284;22548;-90
2023/01/14 05:53:29;;;;;;;19.00;16.90;;;;;;;4.53;94.95;98040.57;108017;1283;23303;-91
2023/01/14 05:55:58;;;;;;;18.10;16.00;;;;;;;4.53;94.90;98045.16;108435;1281;22560;-94
2023/01/14 05:58:26;;;;;;;17.00;14.70;;;;;;;4.53;94.87;98049.27;108881;1283;22477;-90
2023/01/14 06:06:34;;;;;;;11.50;9.60;;;;;;;4.45;94.66;98045.95;108715;1283;22568;-91
2023/01/14 06:09:05;;;;;;;13.20;9.90;;;;;;;4.46;94.56;98054.91;108772;1283;25433;-94
2023/01/14 06:11:33;;;;;;;13.30;10.80;;;;;;;4.45;94.44;98056.52;108537;1284;22610;-93
2023/01/14 06:14:03;;;;;;;12.20;9.80;;;;;;;4.42;94.20;98061.13;107533;1283;24202;-89
2023/01/14 06:16:40;;;;;;;10.30;8.80;;;;;;;4.41;93.90;98068.02;107066;1280;22583;-91
2023/01/14 06:19:13;;;;;;;9.70;8.70;;;;;;;4.40;93.89;98073.82;107318;1283;22531;-92
2023/01/14 06:21:41;;;;;;;13.60;11.50;;;;;;;4.37;94.19;98071.98;107425;1284;23254;-91
2023/01/14 06:24:09;;;;;;;12.10;10.00;;;;;;;4.34;94.30;98077.88;107322;1283;22574;-89
2023/01/14 06:26:37;;;;;;;11.30;9.50;;;;;;;4.32;94.12;98082.65;106822;1283;22553;-90
2023/01/14 06:29:11;;;;;;;11.80;9.20;;;;;;;4.31;94.20;98078.54;106873;1276;22671;-92
2023/01/14 06:31:40;;;;;;;12.50;10.10;;;;;;;4.33;94.30;98084.42;107107;1282;22541;-92
2023/01/14 06:34:09;;;;;;;10.90;9.70;;;;;;;4.32;94.08;98088.20;107174;1283;22620;-91
2023/01/14 06:36:37;;;;;;;12.10;10.70;;;;;;;4.27;94.12;98084.75;107985;1284;25565;-90
2023/01/14 06:39:06;;;;;;;12.70;11.50;;;;;;;4.24;94.19;98083.45;108626;1284;22183;-86
2023/01/14 06:41:34;;;;;;;13.30;10.10;;;;;;;4.24;93.86;98084.14;108670;1284;22581;-89
2023/01/14 06:44:03;;;;;;;11.90;10.50;;;;;;;4.25;94.12;98086.33;108364;1283;24318;-93
2023/01/14 06:46:31;;;;;;;12.50;11.10;;;;;;;4.25;94.09;98083.92;108895;1284;22583;-92
2023/01/14 06:48:59;;;;;;;12.10;10.60;;;;;;;4.21;94.14;98084.27;108870;1283;24257;-93
2023/01/14 06:51:28;;;;;;;15.30;12.00;;;;;;;4.21;93.79;98084.39;107967;1283;22543;-91
2023/01/14 06:53:55;;;;;;;13.00;11.00;;;;;;;4.19;93.78;98088.08;107889;1280;22673;-93
2023/01/14 06:56:23;;;;;;;18.50;13.20;;;;;;;4.22;94.05;98092.86;107845;1283;22649;-91
2023/01/14 06:58:51;;;;;;;14.10;12.50;;;;;;;4.21;94.12;98094.67;108060;1283;25419;-90
2023/01/14 07:01:20;;;;;;;16.30;14.30;;;;;;;4.21;94.16;98096.70;106964;1283;25347;-90
2023/01/14 07:03:49;;;;;;;16.20;13.10;;;;;;;4.20;94.06;98102.60;107741;1283;22952;-93
2023/01/14 07:06:17;;;;;;;17.40;13.70;;;;;;;4.21;94.06;98099.05;107759;1283;24308;-93
2023/01/14 07:08:45;;;;;;;16.70;15.00;;;;;;;4.22;93.98;98103.20;107770;1283;22590;-92
2023/01/14 07:11:13;;;;;;;16.10;14.40;;;;;;;4.26;93.92;98104.10;107780;1283;25623;-93
2023/01/14 07:13:41;;;;;;;16.30;14.50;;;;;;;4.28;94.09;98102.31;106822;1283;22593;-89
2023/01/14 07:16:09;;;;;;;18.00;16.20;;;;;;;4.30;93.96;98102.87;106720;1281;22633;-87
2023/01/14 07:18:37;;;;;;;17.20;15.40;;;;;;;4.27;94.03;98104.65;106849;1283;22542;-90
2023/01/14 07:21:05;;;;;;;15.10;12.80;;;;;;;4.30;94.31;98100.98;106751;1283;22534;-89
2023/01/14 07:23:33;;;;;;;14.80;12.60;;;;;;;4.31;94.04;98104.59;106702;1283;22788;-90
2023/01/14 07:26:01;;;;;;;14.20;12.40;;;;;;;4.33;93.90;98104.38;107433;1283;24838;-89
2023/01/14 07:28:33;;;;;;;14.80;13.20;;;;;;;4.32;93.81;98105.98;107426;1276;22586;-90
2023/01/14 07:31:06;;;;;;;17.60;13.00;;;;;;;4.30;93.97;98106.92;107031;1277;22505;-91
2023/01/14 07:33:35;;;;;;;16.40;12.90;;;;;;;4.32;93.83;98111.09;106874;1284;22597;-89
2023/01/14 07:36:04;;;;;;;13.90;11.90;;;;;;;4.36;94.04;98117.47;106712;1284;22544;-90
2023/01/14 07:38:32;;;;;;;22.10;19.70;;;;;;;4.40;94.01;98116.40;107037;1283;182845;-93
2023/01/14 07:41:00;;;;;;;16.10;14.20;;;;;;;4.43;93.92;98115.88;107434;1283;24288;-90
2023/01/14 07:43:28;;;;;;;15.80;14.20;;;;;;;4.45;93.96;98115.38;107536;1283;25353;-87
2023/01/14 07:45:58;;;;;;;13.70;12.30;;;;;;;4.45;93.39;98116.77;107443;1284;22539;-92
2023/01/14 07:48:29;;;;;;;19.30;16.70;;;;;;;4.47;93.38;98115.59;107721;1260;22590;-90
2023/01/14 07:50:57;;;;;;;15.10;12.50;;;;;;;4.51;93.67;98118.30;107481;1284;23178;-91
2023/01/14 07:53:25;;;;;;;17.00;15.30;;;;;;;4.55;93.41;98120.10;108112;1283;25565;-92
2023/01/14 07:55:53;;;;;;;36.90;33.30;;;;;;;4.54;93.38;98119.83;108320;1283;25429;-89
2023/01/14 07:58:23;;;;;;;24.50;22.10;;;;;;;4.54;93.59;98128.74;107504;1283;22670;-92
2023/01/14 08:00:51;;;;;;;21.60;19.50;;;;;;;4.55;93.46;98135.26;107218;1284;23091;-90
2023/01/14 08:03:20;;;;;;;15.70;13.00;;;;;;;4.59;93.54;98137.27;108561;1281;22569;-92
2023/01/14 08:05:48;;;;;;;17.90;14.10;;;;;;;4.65;93.68;98142.88;109139;1280;22523;-93
2023/01/14 08:08:17;;;;;;;17.50;13.70;;;;;;;4.72;93.53;98143.35;108663;1283;22555;-93
2023/01/14 08:10:45;;;;;;;17.30;14.90;;;;;;;4.74;93.06;98145.61;107560;1283;24324;-90
2023/01/14 08:13:13;;;;;;;18.50;16.50;;;;;;;4.70;92.93;98147.03;107089;1283;22556;-91
2023/01/14 08:15:41;;;;;;;18.60;16.80;;;;;;;4.69;93.29;98144.41;107284;1284;22543;-91
2023/01/14 08:18:09;;;;;;;20.40;18.20;;;;;;;4.70;93.23;98145.54;107830;1275;22636;-91
2023/01/14 08:20:37;;;;;;;23.30;18.00;;;;;;;4.75;93.29;98147.33;107090;1284;23932;-90
2023/01/14 08:23:05;;;;;;;17.80;15.90;;;;;;;4.76;92.91;98153.32;107163;1283;22748;-89
2023/01/14 08:25:33;;;;;;;20.10;18.20;;;;;;;4.75;92.93;98158.86;107827;1283;22809;-92
2023/01/14 08:28:02;;;;;;;43.10;38.80;;;;;;;4.77;93.16;98165.23;108720;1283;23906;-92
2023/01/14 08:30:31;;;;;;;49.20;44.40;;;;;;;4.81;92.89;98160.14;107737;1283;25320;-92
2023/01/14 08:33:00;;;;;;;31.00;28.10;;;;;;;4.87;93.12;98161.10;107320;1283;22600;-91
2023/01/14 08:35:28;;;;;;;21.70;19.40;;;;;;;4.92;92.98;98164.13;107655;1284;22596;-93
2023/01/14 08:37:55;;;;;;;21.20;19.10;;;;;;;4.95;92.99;98160.15;108220;1281;23106;-91
2023/01/14 08:40:24;;;;;;;21.10;19.10;;;;;;;4.97;93.04;98163.15;109484;1283;22488;-90
2023/01/14 08:42:52;;;;;;;18.80;16.80;;;;;;;5.01;92.92;98159.44;109809;1283;22579;-89
2023/01/14 08:45:27;;;;;;;23.30;18.50;;;;;;;5.04;92.67;98159.63;109819;1261;22411;-86
2023/01/14 08:48:01;;;;;;;19.20;17.30;;;;;;;5.12;92.84;98159.47;100809;1265;22498;31
2023/01/14 08:50:29;;;;;;;23.00;18.60;;;;;;;5.18;92.67;98165.12;109775;1255;21818;-90
2023/01/14 08:52:57;;;;;;;20.70;18.60;;;;;;;5.20;92.17;98168.05;109496;1282;22680;-90
2023/01/14 08:55:25;;;;;;;21.10;18.90;;;;;;;5.20;92.30;98178.00;109645;1265;22646;-90
2023/01/14 08:57:53;;;;;;;20.50;18.30;;;;;;;5.24;92.32;98182.95;109852;1269;23947;-92
2023/01/14 09:00:21;;;;;;;22.80;19.60;;;;;;;5.27;92.33;98182.07;109814;1284;22640;-89
2023/01/14 09:02:59;;;;;;;22.00;17.80;;;;;;;5.24;91.87;98170.88;109804;1270;22531;31
2023/01/14 09:05:27;;;;;;;20.00;15.90;;;;;;;5.38;92.00;98183.31;109735;1260;22228;-86
2023/01/14 09:17:17;;;;;;;;;;;;;;;5.53;89.98;98188.75;102131;1259;22858;31
2023/01/14 09:19:58;;;;;;;15.40;12.50;;;;;;;5.52;90.00;98189.17;110177;1256;22350;31
2023/01/14 09:22:47;;;;;;;16.60;12.60;;;;;;;5.58;89.97;98182.69;110313;1257;22341;31
2023/01/14 09:25:24;;;;;;;17.80;13.70;;;;;;;5.60;89.51;98184.50;106338;1258;22436;-86
2023/01/14 09:28:02;;;;;;;18.60;12.80;;;;;;;5.62;89.26;98179.89;110548;1259;22346;31
2023/01/14 09:30:38;;;;;;;16.50;14.40;;;;;;;5.66;89.51;98184.86;110160;1260;22332;31
2023/01/14 09:33:06;;;;;;;16.80;13.70;;;;;;;5.75;89.76;98180.15;109263;1260;22626;-92
2023/01/14 09:35:34;;;;;;;12.60;9.60;;;;;;;5.89;89.64;98184.98;107517;1282;22570;-90
2023/01/14 09:38:02;;;;;;;16.50;12.20;;;;;;;5.98;89.09;98183.38;107965;1281;25285;-92
2023/01/14 09:40:30;;;;;;;13.50;9.90;;;;;;;6.04;88.55;98182.02;108505;1282;22713;-91
2023/01/14 09:42:58;;;;;;;14.20;10.40;;;;;;;6.08;88.21;98175.08;108165;1282;23783;-93
2023/01/14 09:45:30;;;;;;;13.00;9.60;;;;;;;6.10;88.69;98176.10;108673;1260;22575;-95
2023/01/14 09:48:02;;;;;;;15.50;11.50;;;;;;;6.17;87.80;98182.48;109118;1275;22600;-93
2023/01/14 09:50:46;;;;;;;13.00;8.80;;;;;;;6.22;87.48;98179.77;109374;1281;22645;-94
2023/01/14 09:53:31;;;;;;;13.60;9.50;;;;;;;6.23;85.87;98179.67;107758;1282;25441;-93
2023/01/14 09:56:13;;;;;;;15.00;9.90;;;;;;;6.20;85.58;98177.79;107943;1282;22572;-92
2023/01/14 09:58:54;;;;;;;16.90;10.70;;;;;;;6.19;85.75;98176.83;107505;1282;22556;-92
2023/01/14 10:01:36;;;;;;;12.40;9.60;;;;;;;6.24;85.28;98173.73;108291;1282;22574;-90
2023/01/14 10:04:24;;;;;;;12.80;9.20;;;;;;;6.24;86.09;98166.19;108515;1281;22564;-88
2023/01/14 10:06:59;;;;;;;13.10;9.10;;;;;;;6.31;84.79;98168.34;107787;1282;24405;-90
2023/01/14 10:09:33;;;;;;;13.70;10.40;;;;;;;6.30;84.29;98169.14;107107;1282;23996;-91
2023/01/14 10:12:07;;;;;;;12.70;8.50;;;;;;;6.31;84.85;98174.17;107467;1282;25300;-92
2023/01/14 10:15:14;;;;;;;13.90;10.00;;;;;;;6.38;85.24;98164.83;107249;1275;22548;-88
2023/01/14 10:17:50;;;;;;;12.90;8.80;;;;;;;6.49;84.61;98167.04;107430;1277;22555;-93
2023/01/14 10:20:28;;;;;;;12.10;9.30;;;;;;;6.52;84.03;98167.80;107172;1275;25255;-89
2023/01/14 10:23:06;;;;;;;12.70;8.80;;;;;;;6.49;83.55;98163.52;107347;1282;24377;-88
2023/01/14 10:25:34;;;;;;;10.80;7.70;;;;;;;6.48;84.33;98160.03;107487;1282;25610;-92
2023/01/14 10:28:02;;;;;;;12.60;7.10;;;;;;;6.50;83.44;98158.15;107043;1282;22672;-91
2023/01/14 10:30:33;;;;;;;11.70;7.80;;;;;;;6.47;83.68;98153.49;107500;1282;22573;-89
2023/01/14 10:33:13;;;;;;;12.50;9.40;;;;;;;6.46;83.31;98158.58;107131;1283;25525;-90
2023/01/14 10:35:49;;;;;;;15.60;9.50;;;;;;;6.49;83.70;98155.00;107787;1282;22557;-92
2023/01/14 10:38:22;;;;;;;15.70;10.20;;;;;;;6.57;83.30;98153.67;107108;1282;25952;-91
2023/01/14 10:40:55;;;;;;;15.50;9.80;;;;;;;6.63;82.95;98146.71;106965;1282;22551;-92
2023/01/14 10:43:23;;;;;;;14.20;10.10;;;;;;;6.69;82.36;98148.20;107081;1282;22797;-88
2023/01/14 10:45:51;;;;;;;14.10;9.90;;;;;;;6.73;82.20;98143.40;107404;1282;22359;-92
2023/01/14 10:48:21;;;;;;;11.70;9.00;;;;;;;6.72;81.66;98141.04;106905;1282;22576;-91
2023/01/14 10:50:49;;;;;;;14.30;11.20;;;;;;;6.69;81.28;98146.56;107151;1282;23455;-89
2023/01/14 10:53:23;;;;;;;17.30;9.80;;;;;;;6.72;81.08;98145.91;107065;1282;23700;-89
2023/01/14 10:56:01;;;;;;;15.10;10.40;;;;;;;6.73;80.66;98140.55;106763;1282;22708;-89
2023/01/14 10:58:44;;;;;;;13.50;10.70;;;;;;;6.75;81.41;98144.02;106968;1283;22776;-90
2023/01/14 11:01:14;;;;;;;15.60;12.50;;;;;;;6.74;81.13;98143.28;106817;1283;22542;-91
2023/01/14 11:03:48;;;;;;;13.50;10.20;;;;;;;6.66;81.33;98145.86;108082;1283;22617;-93
2023/01/14 11:06:17;;;;;;;16.30;12.20;;;;;;;6.61;81.24;98148.52;107152;1283;23757;-91
2023/01/14 11:08:51;;;;;;;15.30;10.80;;;;;;;6.55;80.97;98148.00;107878;1283;22570;-89
2023/01/14 11:11:26;;;;;;;16.10;11.00;;;;;;;6.48;81.10;98145.67;108299;1283;22680;-90
2023/01/14 11:20:28;;;;;;;15.20;10.50;;;;;;;6.71;81.79;98140.19;107281;1292;546287;-91
2023/01/14 11:23:38;;;;;;;22.60;15.10;;;;;;;6.84;81.91;98133.43;109192;1286;23902;31
2023/01/14 11:29:44;;;;;;;27.20;15.80;;;;;;;7.02;81.38;98133.33;109004;1277;22339;-90
2023/01/14 11:32:21;;;;;;;21.00;12.80;;;;;;;7.14;81.13;98134.77;108915;1296;22429;-90
2023/01/14 11:35:03;;;;;;;22.60;13.10;;;;;;;7.15;80.65;98128.10;109493;1293;163597;-89
2023/01/14 11:37:57;;;;;;;18.00;14.10;;;;;;;7.19;79.61;98123.06;109662;1293;22377;-92
2023/01/14 11:43:19;;;;;;;24.10;19.50;;;;;;;7.90;81.02;98112.63;109653;1293;22119;-94
2023/01/14 11:48:29;;;;;;;16.10;13.20;;;;;;;10.10;79.47;98103.38;108350;1263;22567;-90
2023/01/14 11:51:03;;;;;;;18.80;14.70;;;;;;;11.28;76.75;98106.05;108085;1294;24304;-90
2023/01/14 11:53:52;;;;;;;17.40;12.50;;;;;;;12.12;72.68;98107.23;107543;1294;23900;-94
2023/01/14 11:56:31;;;;;;;12.70;7.70;;;;;;;12.47;71.78;98104.56;107729;1290;22576;-94
2023/01/14 11:59:26;;;;;;;13.70;11.00;;;;;;;13.09;70.17;98103.64;107706;1293;22578;-94
2023/01/14 12:02:12;;;;;;;16.10;10.80;;;;;;;13.59;65.79;98101.55;106612;1294;23196;-92
2023/01/14 12:04:44;;;;;;;14.30;11.50;;;;;;;13.74;63.50;98088.89;106690;1286;22579;-92
2023/01/14 12:07:20;;;;;;;16.80;11.00;;;;;;;13.95;65.08;98082.19;106931;1287;24555;-91
2023/01/14 12:10:15;;;;;;;16.00;10.60;;;;;;;14.36;65.15;98080.04;106942;1279;23279;-92
2023/01/14 12:17:15;;;;;;;;;;;;;;;15.04;59.10;98080.69;108997;1285;22533;-93
2023/01/14 12:19:58;;;;;;;16.00;10.10;;;;;;;14.91;56.67;98079.92;108858;1285;22687;-94
2023/01/14 12:22:36;;;;;;;14.70;11.10;;;;;;;14.41;55.90;98069.74;107256;1283;23559;-90
2023/01/14 12:25:07;;;;;;;15.80;10.60;;;;;;;14.39;57.56;98067.09;107050;1283;22640;-91
2023/01/14 12:27:44;;;;;;;13.30;11.90;;;;;;;14.65;57.38;98062.58;107268;1283;23953;-89
2023/01/14 12:35:02;;;;;;;14.90;9.80;;;;;;;15.73;56.41;98057.44;108907;1283;25421;-94
2023/01/14 12:37:48;;;;;;;10.90;6.90;;;;;;;15.87;56.18;98055.77;107800;1283;25536;-93
2023/01/14 12:46:13;;;;;;;8.40;5.60;;;;;;;15.28;54.24;98057.02;108055;1283;23359;-93
2023/01/14 12:48:51;;;;;;;8.50;5.20;;;;;;;15.48;52.72;98054.32;109427;1283;22859;-92
2023/01/14 12:51:37;;;;;;;9.70;5.20;;;;;;;15.52;53.30;98048.77;109153;1281;22559;-93
2023/01/14 12:54:21;;;;;;;12.50;6.40;;;;;;;14.96;52.63;98049.10;108075;1279;24231;-91
2023/01/14 12:56:56;;;;;;;8.90;5.90;;;;;;;13.91;53.30;98047.10;107803;1283;22539;-90
2023/01/14 12:59:51;;;;;;;8.90;5.70;;;;;;;12.77;53.94;98054.08;107229;1265;24371;-93
2023/01/14 13:02:45;;;;;;;11.00;6.20;;;;;;;11.87;54.66;98054.92;107402;1283;22578;-92
2023/01/14 13:05:44;;;;;;;10.40;6.00;;;;;;;11.84;54.81;98054.45;107746;1283;22664;-93